Terminal Aerodrome Forecast
Issued by NWS

Home | Current Version | Previous Version | Graphics & Text | Print | Product List | Glossary On
Versions: 1 2 3 4 5 6 7 8 9 10 11 12 13 14 15 16 17 18 19 20 21
000
FTUS43 KGRB 240500
TAFMTW
TAF
KMTW 240529Z 2406/2506 VRB03KT 1SM -RA BR OVC006
      TEMPO 2406/2410 1/2SM -RA FG OVC002
     FM241000 31005KT 1/2SM -RA FG OVC003
     FM241400 31009KT 2SM -RA BR OVC009
     FM241800 31012G20KT 4SM -RA OVC009
     FM242200 31012G20KT 2SM -RASN OVC009
     FM250000 31012G16KT 1/2SM SN OVC007=

USA.gov is the U.S. government's official web portal to all federal, state and local government web resources and services.